sensor_id;sensor_type;location;lat;lon;timestamp;P1;durP1;ratioP1;P2;durP2;ratioP2
70487;SDS011;57976;48.174;16.370;2023-03-01T07:12:04;34.80;;;16.00;;
70487;SDS011;57976;48.174;16.370;2023-03-01T07:14:09;33.90;;;16.20;;
70487;SDS011;57976;48.174;16.370;2023-03-01T07:16:14;34.40;;;15.80;;
70487;SDS011;57976;48.174;16.370;2023-03-01T07:18:19;33.30;;;15.00;;
70487;SDS011;57976;48.174;16.370;2023-03-01T07:20:24;35.40;;;15.60;;
70487;SDS011;57976;48.174;16.370;2023-03-01T07:22:29;33.50;;;15.50;;
70487;SDS011;57976;48.174;16.370;2023-03-01T07:24:33;33.60;;;15.10;;
70487;SDS011;57976;48.174;16.370;2023-03-01T07:26:38;34.70;;;15.40;;
70487;SDS011;57976;48.174;16.370;2023-03-01T07:28:43;34.20;;;15.70;;
70487;SDS011;57976;48.174;16.370;2023-03-01T07:30:48;31.50;;;14.40;;
70487;SDS011;57976;48.174;16.370;2023-03-01T07:32:52;34.30;;;14.90;;
70487;SDS011;57976;48.174;16.370;2023-03-01T07:34:58;33.40;;;14.80;;
70487;SDS011;57976;48.174;16.370;2023-03-01T07:37:03;30.90;;;14.30;;
70487;SDS011;57976;48.174;16.370;2023-03-01T07:39:08;29.10;;;13.50;;
70487;SDS011;57976;48.174;16.370;2023-03-01T07:41:14;32.30;;;15.40;;
70487;SDS011;57976;48.174;16.370;2023-03-01T07:43:18;31.00;;;14.30;;
70487;SDS011;57976;48.174;16.370;2023-03-01T07:45:23;32.20;;;15.00;;
70487;SDS011;57976;48.174;16.370;2023-03-01T07:47:28;29.90;;;14.60;;
70487;SDS011;57976;48.174;16.370;2023-03-01T07:49:33;30.40;;;14.20;;
70487;SDS011;57976;48.174;16.370;2023-03-01T07:51:38;33.50;;;14.70;;
70487;SDS011;57976;48.174;16.370;2023-03-01T07:53:45;30.50;;;14.80;;
70487;SDS011;57976;48.174;16.370;2023-03-01T07:55:50;30.80;;;14.20;;
70487;SDS011;57976;48.174;16.370;2023-03-01T07:58:05;28.40;;;14.20;;
70487;SDS011;57976;48.174;16.370;2023-03-01T08:00:11;34.50;;;14.20;;
70487;SDS011;57976;48.174;16.370;2023-03-01T08:02:18;30.80;;;13.20;;
70487;SDS011;57976;48.174;16.370;2023-03-01T08:04:23;31.90;;;14.10;;
70487;SDS011;57976;48.174;16.370;2023-03-01T08:06:27;27.60;;;13.30;;
70487;SDS011;57976;48.174;16.370;2023-03-01T08:08:33;29.80;;;14.20;;
70487;SDS011;57976;48.174;16.370;2023-03-01T08:10:38;32.80;;;14.80;;
70487;SDS011;57976;48.174;16.370;2023-03-01T08:12:43;26.80;;;12.40;;
70487;SDS011;57976;48.174;16.370;2023-03-01T08:14:48;31.10;;;14.00;;
70487;SDS011;57976;48.174;16.370;2023-03-01T08:16:53;32.20;;;14.20;;
70487;SDS011;57976;48.174;16.370;2023-03-01T08:19:02;32.50;;;14.70;;
70487;SDS011;57976;48.174;16.370;2023-03-01T08:21:09;29.00;;;13.30;;
70487;SDS011;57976;48.174;16.370;2023-03-01T08:23:15;31.60;;;14.00;;
70487;SDS011;57976;48.174;16.370;2023-03-01T08:25:20;32.00;;;15.00;;
70487;SDS011;57976;48.174;16.370;2023-03-01T08:27:25;32.90;;;15.10;;
70487;SDS011;57976;48.174;16.370;2023-03-01T08:29:31;34.70;;;16.00;;
70487;SDS011;57976;48.174;16.370;2023-03-01T08:31:36;35.20;;;15.90;;
70487;SDS011;57976;48.174;16.370;2023-03-01T08:33:42;35.20;;;16.00;;
70487;SDS011;57976;48.174;16.370;2023-03-01T08:35:50;36.00;;;16.00;;
70487;SDS011;57976;48.174;16.370;2023-03-01T08:37:55;39.30;;;16.10;;
70487;SDS011;57976;48.174;16.370;2023-03-01T08:39:59;35.10;;;16.20;;
70487;SDS011;57976;48.174;16.370;2023-03-01T08:42:04;33.80;;;15.80;;
70487;SDS011;57976;48.174;16.370;2023-03-01T08:44:09;38.10;;;17.40;;
70487;SDS011;57976;48.174;16.370;2023-03-01T08:46:16;34.70;;;16.00;;
70487;SDS011;57976;48.174;16.370;2023-03-01T08:48:21;32.80;;;16.20;;
70487;SDS011;57976;48.174;16.370;2023-03-01T08:50:26;35.70;;;15.60;;
70487;SDS011;57976;48.174;16.370;2023-03-01T08:52:30;33.80;;;16.50;;
70487;SDS011;57976;48.174;16.370;2023-03-01T08:54:36;34.70;;;16.10;;
70487;SDS011;57976;48.174;16.370;2023-03-01T08:56:41;36.50;;;16.20;;
70487;SDS011;57976;48.174;16.370;2023-03-01T08:58:46;34.70;;;15.30;;
70487;SDS011;57976;48.174;16.370;2023-03-01T09:00:51;32.60;;;15.80;;
70487;SDS011;57976;48.174;16.370;2023-03-01T09:02:56;33.80;;;15.60;;
70487;SDS011;57976;48.174;16.370;2023-03-01T09:05:01;32.60;;;14.60;;
70487;SDS011;57976;48.174;16.370;2023-03-01T09:07:06;31.80;;;15.20;;
70487;SDS011;57976;48.174;16.370;2023-03-01T09:09:12;33.50;;;15.60;;
70487;SDS011;57976;48.174;16.370;2023-03-01T09:11:19;33.80;;;15.60;;
70487;SDS011;57976;48.174;16.370;2023-03-01T09:13:24;32.10;;;16.50;;
70487;SDS011;57976;48.174;16.370;2023-03-01T09:15:30;32.90;;;15.40;;
70487;SDS011;57976;48.174;16.370;2023-03-01T09:17:35;33.10;;;15.70;;
70487;SDS011;57976;48.174;16.370;2023-03-01T09:19:39;30.90;;;15.20;;
70487;SDS011;57976;48.174;16.370;2023-03-01T09:21:44;30.50;;;15.10;;
70487;SDS011;57976;48.174;16.370;2023-03-01T09:23:48;31.60;;;15.30;;
70487;SDS011;57976;48.174;16.370;2023-03-01T09:25:53;32.30;;;15.80;;
70487;SDS011;57976;48.174;16.370;2023-03-01T09:27:58;32.70;;;15.80;;
70487;SDS011;57976;48.174;16.370;2023-03-01T09:30:03;32.60;;;16.20;;
70487;SDS011;57976;48.174;16.370;2023-03-01T09:32:09;32.00;;;15.00;;
70487;SDS011;57976;48.174;16.370;2023-03-01T09:34:14;34.40;;;15.90;;
70487;SDS011;57976;48.174;16.370;2023-03-01T09:36:20;30.50;;;14.90;;
70487;SDS011;57976;48.174;16.370;2023-03-01T09:38:27;31.50;;;15.10;;
70487;SDS011;57976;48.174;16.370;2023-03-01T09:40:33;30.50;;;15.00;;
70487;SDS011;57976;48.174;16.370;2023-03-01T09:42:37;28.40;;;14.70;;
70487;SDS011;57976;48.174;16.370;2023-03-01T09:44:54;28.50;;;14.30;;
70487;SDS011;57976;48.174;16.370;2023-03-01T09:47:05;31.10;;;14.60;;
70487;SDS011;57976;48.174;16.370;2023-03-01T09:49:16;26.00;;;13.10;;
70487;SDS011;57976;48.174;16.370;2023-03-01T09:51:24;28.60;;;14.00;;
70487;SDS011;57976;48.174;16.370;2023-03-01T09:53:33;29.70;;;14.20;;
70487;SDS011;57976;48.174;16.370;2023-03-01T09:55:39;27.00;;;13.80;;
70487;SDS011;57976;48.174;16.370;2023-03-01T09:57:47;28.00;;;14.10;;
70487;SDS011;57976;48.174;16.370;2023-03-01T09:59:59;27.10;;;13.80;;
70487;SDS011;57976;48.174;16.370;2023-03-01T10:02:18;28.80;;;14.40;;
70487;SDS011;57976;48.174;16.370;2023-03-01T10:04:36;29.50;;;14.70;;
70487;SDS011;57976;48.174;16.370;2023-03-01T10:06:50;27.60;;;13.50;;
70487;SDS011;57976;48.174;16.370;2023-03-01T10:09:00;30.00;;;14.30;;
70487;SDS011;57976;48.174;16.370;2023-03-01T10:11:16;24.00;;;11.80;;
70487;SDS011;57976;48.174;16.370;2023-03-01T10:13:27;26.80;;;13.80;;
70487;SDS011;57976;48.174;16.370;2023-03-01T10:15:45;26.40;;;13.60;;
70487;SDS011;57976;48.174;16.370;2023-03-01T10:17:55;25.50;;;13.50;;
70487;SDS011;57976;48.174;16.370;2023-03-01T10:20:14;24.60;;;13.00;;
70487;SDS011;57976;48.174;16.370;2023-03-01T10:22:22;24.80;;;12.90;;
70487;SDS011;57976;48.174;16.370;2023-03-01T10:24:31;25.50;;;12.50;;
70487;SDS011;57976;48.174;16.370;2023-03-01T10:26:40;24.20;;;12.40;;
70487;SDS011;57976;48.174;16.370;2023-03-01T10:28:53;25.60;;;13.10;;
70487;SDS011;57976;48.174;16.370;2023-03-01T10:31:04;23.50;;;12.70;;
70487;SDS011;57976;48.174;16.370;2023-03-01T10:33:15;25.60;;;13.20;;
70487;SDS011;57976;48.174;16.370;2023-03-01T10:35:24;26.00;;;13.10;;
70487;SDS011;57976;48.174;16.370;2023-03-01T10:37:32;26.20;;;13.40;;
70487;SDS011;57976;48.174;16.370;2023-03-01T10:39:38;26.70;;;13.70;;
70487;SDS011;57976;48.174;16.370;2023-03-01T10:42:00;23.60;;;11.80;;
70487;SDS011;57976;48.174;16.370;2023-03-01T10:44:08;25.70;;;13.80;;
70487;SDS011;57976;48.174;16.370;2023-03-01T10:46:45;25.20;;;11.90;;
70487;SDS011;57976;48.174;16.370;2023-03-01T10:49:13;70.70;;;36.10;;
70487;SDS011;57976;48.174;16.370;2023-03-01T10:51:19;31.20;;;15.30;;
70487;SDS011;57976;48.174;16.370;2023-03-01T10:53:26;21.70;;;11.50;;
70487;SDS011;57976;48.174;16.370;2023-03-01T10:55:34;22.70;;;11.70;;
70487;SDS011;57976;48.174;16.370;2023-03-01T10:57:40;25.60;;;12.40;;
70487;SDS011;57976;48.174;16.370;2023-03-01T10:59:44;33.70;;;16.30;;
70487;SDS011;57976;48.174;16.370;2023-03-01T11:02:04;45.20;;;22.20;;
70487;SDS011;57976;48.174;16.370;2023-03-01T11:04:27;29.10;;;15.10;;
70487;SDS011;57976;48.174;16.370;2023-03-01T11:06:32;25.50;;;13.20;;
70487;SDS011;57976;48.174;16.370;2023-03-01T11:08:42;19.50;;;9.10;;
70487;SDS011;57976;48.174;16.370;2023-03-01T11:10:47;21.80;;;11.50;;
70487;SDS011;57976;48.174;16.370;2023-03-01T11:12:52;22.50;;;10.50;;
70487;SDS011;57976;48.174;16.370;2023-03-01T11:15:15;20.40;;;10.60;;
70487;SDS011;57976;48.174;16.370;2023-03-01T11:17:27;20.00;;;10.00;;
70487;SDS011;57976;48.174;16.370;2023-03-01T11:19:40;24.00;;;11.00;;
70487;SDS011;57976;48.174;16.370;2023-03-01T11:21:58;23.50;;;11.60;;
70487;SDS011;57976;48.174;16.370;2023-03-01T11:24:09;22.40;;;11.50;;
70487;SDS011;57976;48.174;16.370;2023-03-01T11:26:15;20.80;;;10.00;;
70487;SDS011;57976;48.174;16.370;2023-03-01T11:28:21;25.30;;;11.90;;
70487;SDS011;57976;48.174;16.370;2023-03-01T11:30:30;22.50;;;10.20;;
70487;SDS011;57976;48.174;16.370;2023-03-01T11:32:40;23.80;;;12.50;;
70487;SDS011;57976;48.174;16.370;2023-03-01T11:34:49;23.40;;;11.50;;
70487;SDS011;57976;48.174;16.370;2023-03-01T11:36:58;27.30;;;13.60;;
70487;SDS011;57976;48.174;16.370;2023-03-01T11:39:11;25.50;;;12.40;;
70487;SDS011;57976;48.174;16.370;2023-03-01T11:41:28;25.70;;;12.20;;
70487;SDS011;57976;48.174;16.370;2023-03-01T11:43:47;24.40;;;11.90;;
70487;SDS011;57976;48.174;16.370;2023-03-01T11:48:41;24.80;;;12.60;;
70487;SDS011;57976;48.174;16.370;2023-03-01T11:50:53;24.90;;;12.70;;
70487;SDS011;57976;48.174;16.370;2023-03-01T11:53:04;22.40;;;12.50;;
70487;SDS011;57976;48.174;16.370;2023-03-01T11:55:44;25.20;;;12.10;;
70487;SDS011;57976;48.174;16.370;2023-03-01T11:58:11;24.30;;;12.00;;
70487;SDS011;57976;48.174;16.370;2023-03-01T12:00:34;25.40;;;13.30;;
70487;SDS011;57976;48.174;16.370;2023-03-01T12:08:02;24.30;;;12.80;;
70487;SDS011;57976;48.174;16.370;2023-03-01T12:10:19;22.90;;;11.80;;
70487;SDS011;57976;48.174;16.370;2023-03-01T12:12:30;24.50;;;11.80;;
70487;SDS011;57976;48.174;16.370;2023-03-01T12:14:45;20.90;;;10.70;;
70487;SDS011;57976;48.174;16.370;2023-03-01T12:17:08;22.20;;;11.50;;
70487;SDS011;57976;48.174;16.370;2023-03-01T12:19:36;20.90;;;11.00;;
70487;SDS011;57976;48.174;16.370;2023-03-01T12:22:02;19.30;;;10.40;;
70487;SDS011;57976;48.174;16.370;2023-03-01T12:24:31;22.70;;;10.40;;
70487;SDS011;57976;48.174;16.370;2023-03-01T12:26:52;22.00;;;10.90;;
70487;SDS011;57976;48.174;16.370;2023-03-01T12:29:25;23.00;;;11.20;;
70487;SDS011;57976;48.174;16.370;2023-03-01T12:31:38;20.70;;;9.50;;
70487;SDS011;57976;48.174;16.370;2023-03-01T12:33:54;18.20;;;9.60;;
70487;SDS011;57976;48.174;16.370;2023-03-01T12:36:18;20.00;;;10.50;;
70487;SDS011;57976;48.174;16.370;2023-03-01T12:38:36;22.00;;;11.10;;
70487;SDS011;57976;48.174;16.370;2023-03-01T12:40:49;22.00;;;11.20;;
70487;SDS011;57976;48.174;16.370;2023-03-01T12:43:10;24.30;;;12.00;;
70487;SDS011;57976;48.174;16.370;2023-03-01T12:45:30;21.80;;;11.30;;
70487;SDS011;57976;48.174;16.370;2023-03-01T12:47:53;23.70;;;12.20;;
70487;SDS011;57976;48.174;16.370;2023-03-01T12:50:12;22.90;;;11.40;;
70487;SDS011;57976;48.174;16.370;2023-03-01T12:52:24;22.70;;;12.20;;
70487;SDS011;57976;48.174;16.370;2023-03-01T12:54:41;23.50;;;11.50;;
70487;SDS011;57976;48.174;16.370;2023-03-01T12:56:46;21.90;;;11.10;;
70487;SDS011;57976;48.174;16.370;2023-03-01T12:58:57;20.40;;;10.90;;
70487;SDS011;57976;48.174;16.370;2023-03-01T13:01:12;21.50;;;11.10;;
70487;SDS011;57976;48.174;16.370;2023-03-01T13:03:25;20.30;;;10.80;;
70487;SDS011;57976;48.174;16.370;2023-03-01T13:05:42;23.30;;;11.50;;
70487;SDS011;57976;48.174;16.370;2023-03-01T13:08:01;19.70;;;10.00;;
70487;SDS011;57976;48.174;16.370;2023-03-01T13:10:17;21.60;;;10.70;;
70487;SDS011;57976;48.174;16.370;2023-03-01T13:12:43;19.50;;;10.40;;
70487;SDS011;57976;48.174;16.370;2023-03-01T13:14:54;21.50;;;11.30;;
70487;SDS011;57976;48.174;16.370;2023-03-01T13:16:59;19.70;;;10.20;;
70487;SDS011;57976;48.174;16.370;2023-03-01T13:19:07;21.90;;;10.40;;
70487;SDS011;57976;48.174;16.370;2023-03-01T13:21:16;20.90;;;10.60;;
70487;SDS011;57976;48.174;16.370;2023-03-01T13:23:34;19.00;;;9.30;;
70487;SDS011;57976;48.174;16.370;2023-03-01T13:30:58;20.50;;;11.30;;
70487;SDS011;57976;48.174;16.370;2023-03-01T13:35:43;19.40;;;9.80;;
70487;SDS011;57976;48.174;16.370;2023-03-01T13:37:48;23.60;;;12.20;;
70487;SDS011;57976;48.174;16.370;2023-03-01T13:39:53;24.90;;;12.20;;
70487;SDS011;57976;48.174;16.370;2023-03-01T13:41:58;22.10;;;11.40;;
70487;SDS011;57976;48.174;16.370;2023-03-01T13:44:03;21.20;;;10.80;;
70487;SDS011;57976;48.174;16.370;2023-03-01T13:46:23;21.60;;;11.60;;
70487;SDS011;57976;48.174;16.370;2023-03-01T13:48:29;20.90;;;11.60;;
70487;SDS011;57976;48.174;16.370;2023-03-01T13:50:38;22.70;;;12.00;;
70487;SDS011;57976;48.174;16.370;2023-03-01T13:52:51;22.30;;;11.30;;
70487;SDS011;57976;48.174;16.370;2023-03-01T13:54:58;22.30;;;11.30;;
70487;SDS011;57976;48.174;16.370;2023-03-01T13:57:04;21.50;;;11.40;;
70487;SDS011;57976;48.174;16.370;2023-03-01T13:59:17;22.00;;;11.70;;
70487;SDS011;57976;48.174;16.370;2023-03-01T14:01:25;20.70;;;11.20;;
70487;SDS011;57976;48.174;16.370;2023-03-01T14:03:33;19.80;;;10.70;;
70487;SDS011;57976;48.174;16.370;2023-03-01T14:05:50;21.60;;;11.20;;
70487;SDS011;57976;48.174;16.370;2023-03-01T14:08:20;21.90;;;10.40;;
70487;SDS011;57976;48.174;16.370;2023-03-01T14:10:32;21.80;;;11.00;;
70487;SDS011;57976;48.174;16.370;2023-03-01T14:12:47;20.30;;;10.50;;
70487;SDS011;57976;48.174;16.370;2023-03-01T14:15:00;19.20;;;9.90;;
70487;SDS011;57976;48.174;16.370;2023-03-01T14:17:19;20.50;;;10.50;;
70487;SDS011;57976;48.174;16.370;2023-03-01T14:19:55;22.30;;;10.50;;
70487;SDS011;57976;48.174;16.370;2023-03-01T14:22:03;21.00;;;10.80;;
70487;SDS011;57976;48.174;16.370;2023-03-01T14:24:17;20.50;;;10.80;;
70487;SDS011;57976;48.174;16.370;2023-03-01T14:26:24;22.80;;;11.60;;
70487;SDS011;57976;48.174;16.370;2023-03-01T14:28:33;19.10;;;10.10;;
70487;SDS011;57976;48.174;16.370;2023-03-01T14:30:41;21.50;;;10.40;;
70487;SDS011;57976;48.174;16.370;2023-03-01T14:32:53;22.00;;;11.40;;
70487;SDS011;57976;48.174;16.370;2023-03-01T14:35:00;21.70;;;11.00;;
70487;SDS011;57976;48.174;16.370;2023-03-01T14:37:11;23.30;;;11.60;;
70487;SDS011;57976;48.174;16.370;2023-03-01T14:39:25;20.20;;;10.30;;
70487;SDS011;57976;48.174;16.370;2023-03-01T14:41:30;22.10;;;10.70;;
70487;SDS011;57976;48.174;16.370;2023-03-01T14:43:37;22.00;;;10.90;;
70487;SDS011;57976;48.174;16.370;2023-03-01T14:45:47;22.70;;;10.80;;
70487;SDS011;57976;48.174;16.370;2023-03-01T14:47:53;20.90;;;10.80;;
70487;SDS011;57976;48.174;16.370;2023-03-01T14:50:02;21.80;;;10.60;;
70487;SDS011;57976;48.174;16.370;2023-03-01T14:52:19;19.10;;;10.30;;
70487;SDS011;57976;48.174;16.370;2023-03-01T14:54:29;20.80;;;10.60;;
70487;SDS011;57976;48.174;16.370;2023-03-01T14:56:45;25.00;;;11.20;;
70487;SDS011;57976;48.174;16.370;2023-03-01T14:58:52;22.30;;;11.20;;
70487;SDS011;57976;48.174;16.370;2023-03-01T15:01:01;22.30;;;11.70;;
70487;SDS011;57976;48.174;16.370;2023-03-01T15:03:08;22.60;;;11.10;;
70487;SDS011;57976;48.174;16.370;2023-03-01T15:05:18;22.00;;;11.30;;
70487;SDS011;57976;48.174;16.370;2023-03-01T15:07:29;21.50;;;11.10;;
70487;SDS011;57976;48.174;16.370;2023-03-01T15:09:36;34.70;;;18.50;;
70487;SDS011;57976;48.174;16.370;2023-03-01T15:11:42;29.90;;;16.20;;
70487;SDS011;57976;48.174;16.370;2023-03-01T15:13:47;25.10;;;12.40;;
70487;SDS011;57976;48.174;16.370;2023-03-01T15:15:53;24.50;;;12.80;;
70487;SDS011;57976;48.174;16.370;2023-03-01T15:18:13;24.90;;;12.80;;
70487;SDS011;57976;48.174;16.370;2023-03-01T15:20:22;23.70;;;13.10;;
70487;SDS011;57976;48.174;16.370;2023-03-01T15:22:29;24.60;;;12.30;;
70487;SDS011;57976;48.174;16.370;2023-03-01T15:24:33;24.30;;;12.50;;
70487;SDS011;57976;48.174;16.370;2023-03-01T15:26:39;23.30;;;12.50;;
70487;SDS011;57976;48.174;16.370;2023-03-01T15:28:50;23.40;;;12.50;;
70487;SDS011;57976;48.174;16.370;2023-03-01T15:30:58;26.70;;;14.10;;
70487;SDS011;57976;48.174;16.370;2023-03-01T15:33:27;23.60;;;12.70;;
70487;SDS011;57976;48.174;16.370;2023-03-01T15:35:39;22.90;;;12.10;;
70487;SDS011;57976;48.174;16.370;2023-03-01T15:37:46;22.80;;;11.80;;
70487;SDS011;57976;48.174;16.370;2023-03-01T15:39:54;20.20;;;9.80;;
70487;SDS011;57976;48.174;16.370;2023-03-01T15:41:59;21.30;;;11.50;;
70487;SDS011;57976;48.174;16.370;2023-03-01T15:44:15;25.60;;;12.60;;
70487;SDS011;57976;48.174;16.370;2023-03-01T15:46:32;25.20;;;12.30;;
70487;SDS011;57976;48.174;16.370;2023-03-01T15:48:38;25.20;;;12.80;;
70487;SDS011;57976;48.174;16.370;2023-03-01T15:50:53;28.20;;;12.20;;
70487;SDS011;57976;48.174;16.370;2023-03-01T15:53:00;25.00;;;12.10;;
70487;SDS011;57976;48.174;16.370;2023-03-01T15:55:16;23.20;;;11.90;;
70487;SDS011;57976;48.174;16.370;2023-03-01T15:57:22;24.20;;;12.40;;
70487;SDS011;57976;48.174;16.370;2023-03-01T15:59:26;22.90;;;11.60;;
70487;SDS011;57976;48.174;16.370;2023-03-01T16:01:31;26.30;;;12.80;;
70487;SDS011;57976;48.174;16.370;2023-03-01T16:03:37;24.00;;;12.00;;
70487;SDS011;57976;48.174;16.370;2023-03-01T16:05:42;23.70;;;12.30;;
70487;SDS011;57976;48.174;16.370;2023-03-01T16:07:47;26.60;;;12.90;;
70487;SDS011;57976;48.174;16.370;2023-03-01T16:09:51;24.20;;;13.00;;
70487;SDS011;57976;48.174;16.370;2023-03-01T16:11:57;26.40;;;13.70;;
70487;SDS011;57976;48.174;16.370;2023-03-01T16:14:01;27.40;;;13.70;;
70487;SDS011;57976;48.174;16.370;2023-03-01T16:16:08;24.80;;;12.50;;
70487;SDS011;57976;48.174;16.370;2023-03-01T16:18:15;24.20;;;11.80;;
70487;SDS011;57976;48.174;16.370;2023-03-01T16:20:20;25.00;;;12.90;;
70487;SDS011;57976;48.174;16.370;2023-03-01T16:22:32;25.10;;;12.80;;
70487;SDS011;57976;48.174;16.370;2023-03-01T16:24:36;25.70;;;12.80;;
70487;SDS011;57976;48.174;16.370;2023-03-01T16:26:41;20.70;;;11.00;;
70487;SDS011;57976;48.174;16.370;2023-03-01T16:28:47;25.70;;;12.10;;
70487;SDS011;57976;48.174;16.370;2023-03-01T16:30:52;24.40;;;13.00;;
70487;SDS011;57976;48.174;16.370;2023-03-01T16:32:57;26.60;;;13.00;;
70487;SDS011;57976;48.174;16.370;2023-03-01T16:35:02;24.80;;;12.80;;
70487;SDS011;57976;48.174;16.370;2023-03-01T16:37:08;24.30;;;12.40;;
70487;SDS011;57976;48.174;16.370;2023-03-01T16:39:13;27.50;;;12.60;;
70487;SDS011;57976;48.174;16.370;2023-03-01T16:41:19;25.60;;;13.10;;
70487;SDS011;57976;48.174;16.370;2023-03-01T16:43:25;23.00;;;11.80;;
70487;SDS011;57976;48.174;16.370;2023-03-01T16:45:33;23.30;;;11.30;;
70487;SDS011;57976;48.174;16.370;2023-03-01T16:47:38;25.10;;;11.80;;
70487;SDS011;57976;48.174;16.370;2023-03-01T16:49:43;21.80;;;10.80;;
70487;SDS011;57976;48.174;16.370;2023-03-01T16:51:52;23.80;;;12.00;;
70487;SDS011;57976;48.174;16.370;2023-03-01T16:53:58;24.90;;;12.10;;
70487;SDS011;57976;48.174;16.370;2023-03-01T16:56:04;24.20;;;12.40;;
70487;SDS011;57976;48.174;16.370;2023-03-01T16:58:11;25.90;;;11.70;;
70487;SDS011;57976;48.174;16.370;2023-03-01T17:00:17;23.50;;;12.00;;
70487;SDS011;57976;48.174;16.370;2023-03-01T17:02:24;23.20;;;12.20;;
70487;SDS011;57976;48.174;16.370;2023-03-01T17:04:31;23.70;;;11.90;;
70487;SDS011;57976;48.174;16.370;2023-03-01T17:06:36;25.00;;;11.40;;
70487;SDS011;57976;48.174;16.370;2023-03-01T17:08:42;28.00;;;12.40;;
70487;SDS011;57976;48.174;16.370;2023-03-01T17:10:49;33.90;;;14.40;;
70487;SDS011;57976;48.174;16.370;2023-03-01T17:12:54;29.30;;;14.10;;
70487;SDS011;57976;48.174;16.370;2023-03-01T17:14:59;28.00;;;13.60;;
70487;SDS011;57976;48.174;16.370;2023-03-01T17:17:05;26.20;;;12.00;;
70487;SDS011;57976;48.174;16.370;2023-03-01T17:19:10;28.80;;;13.00;;
70487;SDS011;57976;48.174;16.370;2023-03-01T17:21:17;26.90;;;12.70;;
70487;SDS011;57976;48.174;16.370;2023-03-01T17:23:23;22.40;;;11.10;;
70487;SDS011;57976;48.174;16.370;2023-03-01T17:25:28;28.70;;;13.30;;
70487;SDS011;57976;48.174;16.370;2023-03-01T17:27:34;24.80;;;11.60;;
70487;SDS011;57976;48.174;16.370;2023-03-01T17:29:41;24.20;;;11.90;;
70487;SDS011;57976;48.174;16.370;2023-03-01T17:31:46;25.40;;;12.00;;
70487;SDS011;57976;48.174;16.370;2023-03-01T17:33:51;24.40;;;12.00;;
70487;SDS011;57976;48.174;16.370;2023-03-01T17:36:01;25.60;;;12.00;;
70487;SDS011;57976;48.174;16.370;2023-03-01T17:38:07;23.40;;;11.90;;
70487;SDS011;57976;48.174;16.370;2023-03-01T17:40:13;23.30;;;11.80;;
70487;SDS011;57976;48.174;16.370;2023-03-01T17:42:19;26.90;;;11.90;;
70487;SDS011;57976;48.174;16.370;2023-03-01T17:44:27;24.40;;;12.20;;
70487;SDS011;57976;48.174;16.370;2023-03-01T17:46:33;23.30;;;11.10;;
70487;SDS011;57976;48.174;16.370;2023-03-01T17:48:38;25.00;;;11.70;;
70487;SDS011;57976;48.174;16.370;2023-03-01T17:50:44;27.70;;;12.90;;
70487;SDS011;57976;48.174;16.370;2023-03-01T17:52:50;23.20;;;12.20;;
70487;SDS011;57976;48.174;16.370;2023-03-01T17:54:57;24.80;;;12.20;;
70487;SDS011;57976;48.174;16.370;2023-03-01T17:57:03;27.50;;;12.60;;
70487;SDS011;57976;48.174;16.370;2023-03-01T17:59:08;25.10;;;12.40;;
70487;SDS011;57976;48.174;16.370;2023-03-01T18:01:14;24.70;;;12.00;;
70487;SDS011;57976;48.174;16.370;2023-03-01T18:03:22;26.70;;;13.00;;
70487;SDS011;57976;48.174;16.370;2023-03-01T18:05:27;26.60;;;13.00;;
70487;SDS011;57976;48.174;16.370;2023-03-01T18:07:40;26.20;;;12.40;;
70487;SDS011;57976;48.174;16.370;2023-03-01T18:09:45;24.20;;;12.10;;
70487;SDS011;57976;48.174;16.370;2023-03-01T18:11:51;24.90;;;12.60;;
70487;SDS011;57976;48.174;16.370;2023-03-01T18:13:56;28.50;;;13.60;;
70487;SDS011;57976;48.174;16.370;2023-03-01T18:16:05;28.60;;;13.70;;
70487;SDS011;57976;48.174;16.370;2023-03-01T18:18:12;27.90;;;13.40;;
70487;SDS011;57976;48.174;16.370;2023-03-01T18:20:17;27.60;;;13.80;;
70487;SDS011;57976;48.174;16.370;2023-03-01T18:22:25;29.70;;;14.00;;
70487;SDS011;57976;48.174;16.370;2023-03-01T18:24:31;30.90;;;15.20;;
70487;SDS011;57976;48.174;16.370;2023-03-01T18:26:38;30.50;;;14.70;;
70487;SDS011;57976;48.174;16.370;2023-03-01T18:28:43;28.80;;;13.90;;
70487;SDS011;57976;48.174;16.370;2023-03-01T18:30:54;28.20;;;13.90;;
70487;SDS011;57976;48.174;16.370;2023-03-01T18:33:01;28.80;;;13.80;;
70487;SDS011;57976;48.174;16.370;2023-03-01T18:35:08;28.90;;;13.80;;
70487;SDS011;57976;48.174;16.370;2023-03-01T18:37:14;30.10;;;14.30;;
70487;SDS011;57976;48.174;16.370;2023-03-01T18:39:22;28.50;;;14.40;;
70487;SDS011;57976;48.174;16.370;2023-03-01T18:41:29;28.50;;;13.90;;
70487;SDS011;57976;48.174;16.370;2023-03-01T18:43:36;29.90;;;14.10;;
70487;SDS011;57976;48.174;16.370;2023-03-01T18:45:43;26.90;;;13.50;;
70487;SDS011;57976;48.174;16.370;2023-03-01T18:47:50;28.00;;;13.90;;
70487;SDS011;57976;48.174;16.370;2023-03-01T18:49:56;28.60;;;13.90;;
70487;SDS011;57976;48.174;16.370;2023-03-01T18:52:03;27.40;;;12.90;;
70487;SDS011;57976;48.174;16.370;2023-03-01T18:54:12;27.40;;;13.60;;
70487;SDS011;57976;48.174;16.370;2023-03-01T18:56:18;29.60;;;14.10;;
70487;SDS011;57976;48.174;16.370;2023-03-01T18:58:24;28.00;;;13.90;;
70487;SDS011;57976;48.174;16.370;2023-03-01T19:00:31;31.60;;;13.70;;
70487;SDS011;57976;48.174;16.370;2023-03-01T19:02:38;27.90;;;13.10;;
70487;SDS011;57976;48.174;16.370;2023-03-01T19:04:45;29.40;;;14.60;;
70487;SDS011;57976;48.174;16.370;2023-03-01T19:06:53;29.30;;;13.70;;
70487;SDS011;57976;48.174;16.370;2023-03-01T19:08:59;28.90;;;13.80;;
70487;SDS011;57976;48.174;16.370;2023-03-01T19:11:08;28.90;;;14.10;;
70487;SDS011;57976;48.174;16.370;2023-03-01T19:13:17;32.90;;;14.50;;
70487;SDS011;57976;48.174;16.370;2023-03-01T19:15:27;28.60;;;14.50;;
70487;SDS011;57976;48.174;16.370;2023-03-01T19:17:34;28.00;;;13.70;;
70487;SDS011;57976;48.174;16.370;2023-03-01T19:19:43;34.80;;;15.20;;
70487;SDS011;57976;48.174;16.370;2023-03-01T19:21:50;30.80;;;14.70;;
70487;SDS011;57976;48.174;16.370;2023-03-01T19:24:11;28.20;;;13.60;;
70487;SDS011;57976;48.174;16.370;2023-03-01T19:26:25;29.70;;;13.80;;
70487;SDS011;57976;48.174;16.370;2023-03-01T19:28:37;30.60;;;14.50;;
70487;SDS011;57976;48.174;16.370;2023-03-01T19:30:49;27.90;;;14.00;;
70487;SDS011;57976;48.174;16.370;2023-03-01T19:32:55;29.40;;;13.40;;
70487;SDS011;57976;48.174;16.370;2023-03-01T19:35:01;29.30;;;14.20;;
70487;SDS011;57976;48.174;16.370;2023-03-01T19:37:08;29.40;;;14.80;;
70487;SDS011;57976;48.174;16.370;2023-03-01T19:39:14;31.50;;;14.60;;
70487;SDS011;57976;48.174;16.370;2023-03-01T19:41:21;31.80;;;15.20;;
70487;SDS011;57976;48.174;16.370;2023-03-01T19:43:27;33.40;;;16.20;;
70487;SDS011;57976;48.174;16.370;2023-03-01T19:45:32;34.50;;;17.50;;
70487;SDS011;57976;48.174;16.370;2023-03-01T19:47:39;35.20;;;16.80;;
70487;SDS011;57976;48.174;16.370;2023-03-01T19:49:49;34.20;;;16.50;;
70487;SDS011;57976;48.174;16.370;2023-03-01T19:51:55;33.90;;;17.60;;